Luba, Equatorial Guinea
Current Conditions -  °F | °C
As of 12:00 PM on Saturday 20 Dec 2014 (Local Time) from FKKD Reporting Station
Haze Haze  
Wind Chill: 32°   Ceiling: 1600
Heat Index: 39°   Visibility: 3mi
Dew Point: 25°   Wind: 7mph
Humidity: 66%   Direction: 180°S
Pressure: 29.88"   Gusts: NA
Location:  3.46°N, 8.55°E
Report Text: FKKD 201100Z 18006KT 5000 HZ BKN016 FEW020CB 32/25 Q1012 NOSIG
Loading
Personal Weather Stations






























Interactive Weather Map New forecast layout! Learn more

10-Day Weather Forecast

Advertisements
Track Severe Weather on mobile